createdAt,value
2022-12-24T00:01:04.724Z,5.57
2022-12-24T00:03:32.740Z,4.17
2022-12-24T00:06:00.486Z,5.13
2022-12-24T00:08:28.128Z,5.53
2022-12-24T00:10:55.717Z,4.00
2022-12-24T00:13:23.411Z,4.10
2022-12-24T00:15:51.049Z,4.30
2022-12-24T00:18:18.735Z,4.77
2022-12-24T00:20:50.050Z,5.00
2022-12-24T00:23:18.123Z,4.87
2022-12-24T00:25:46.006Z,4.13
2022-12-24T00:28:15.713Z,4.80
2022-12-24T00:30:43.608Z,4.60
2022-12-24T00:33:11.567Z,4.40
2022-12-24T00:35:40.063Z,4.87
2022-12-24T00:38:08.218Z,4.27
2022-12-24T00:40:35.909Z,5.00
2022-12-24T00:43:06.364Z,4.83
2022-12-24T00:45:34.033Z,5.63
2022-12-24T00:48:01.659Z,4.47
2022-12-24T00:50:29.305Z,5.43
2022-12-24T00:52:56.911Z,4.73
2022-12-24T00:55:24.638Z,5.53
2022-12-24T00:57:52.283Z,4.47
2022-12-24T01:00:20.147Z,3.90
2022-12-24T01:02:48.052Z,5.77
2022-12-24T01:05:15.929Z,5.43
2022-12-24T01:07:44.690Z,4.40
2022-12-24T01:10:14.374Z,4.67
2022-12-24T01:12:42.523Z,5.27
2022-12-24T01:15:10.883Z,4.20
2022-12-24T01:17:38.679Z,4.53
2022-12-24T01:20:06.913Z,4.43
2022-12-24T01:22:34.635Z,4.70
2022-12-24T01:25:02.243Z,4.00
2022-12-24T01:27:33.132Z,5.43
2022-12-24T01:30:00.866Z,3.93
2022-12-24T01:32:28.540Z,5.37
2022-12-24T01:34:56.291Z,5.27
2022-12-24T01:37:24.352Z,4.90
2022-12-24T01:39:52.066Z,4.67
2022-12-24T01:42:24.202Z,4.97
2022-12-24T01:44:52.228Z,4.40
2022-12-24T01:47:23.155Z,4.37
2022-12-24T01:49:58.119Z,5.13
2022-12-24T01:52:28.759Z,4.37
2022-12-24T01:55:01.767Z,4.93
2022-12-24T01:57:32.315Z,5.80
2022-12-24T02:00:03.004Z,5.30
2022-12-24T02:02:31.432Z,4.77
2022-12-24T02:05:15.074Z,4.50
2022-12-24T02:07:45.417Z,5.20
2022-12-24T02:10:13.707Z,4.80
2022-12-24T02:12:42.523Z,4.90
2022-12-24T02:15:11.574Z,4.67
2022-12-24T02:17:56.440Z,4.87
2022-12-24T02:20:24.084Z,5.33
2022-12-24T02:22:51.694Z,4.20
2022-12-24T02:25:31.301Z,4.67
2022-12-24T02:28:14.771Z,4.20
2022-12-24T02:30:48.423Z,4.77
2022-12-24T02:33:21.078Z,4.80
2022-12-24T02:36:00.719Z,4.97
2022-12-24T02:38:37.442Z,4.80
2022-12-24T02:41:15.371Z,5.03
2022-12-24T02:43:47.191Z,4.37
2022-12-24T02:46:17.445Z,4.47
2022-12-24T02:48:47.335Z,4.87
2022-12-24T02:51:15.303Z,4.27
2022-12-24T02:53:43.399Z,3.93
2022-12-24T02:56:20.526Z,4.37
2022-12-24T02:58:48.139Z,4.97
2022-12-24T03:01:36.409Z,4.33
2022-12-24T03:04:06.153Z,4.50
2022-12-24T03:06:52.615Z,6.87
2022-12-24T03:09:45.651Z,4.77
2022-12-24T03:12:16.309Z,5.03
2022-12-24T03:14:47.479Z,4.00
2022-12-24T03:17:15.549Z,4.40
2022-12-24T03:19:43.174Z,5.43
2022-12-24T03:22:12.361Z,5.27
2022-12-24T03:24:40.245Z,4.27
2022-12-24T03:27:10.411Z,4.73
2022-12-24T03:29:41.779Z,4.80
2022-12-24T03:32:09.563Z,3.60
2022-12-24T03:34:37.343Z,4.27
2022-12-24T03:37:05.203Z,3.77
2022-12-24T03:39:32.863Z,4.07
2022-12-24T03:42:00.637Z,3.77
2022-12-24T03:44:28.231Z,3.80
2022-12-24T03:46:58.705Z,3.83
2022-12-24T03:49:26.406Z,3.00
2022-12-24T03:51:54.023Z,4.20
2022-12-24T03:54:21.759Z,2.97
2022-12-24T03:56:52.079Z,4.37
2022-12-24T03:59:19.822Z,3.90
2022-12-24T04:01:47.710Z,3.37
2022-12-24T04:04:18.046Z,3.77
2022-12-24T04:06:45.757Z,2.63
2022-12-24T04:09:13.401Z,3.53
2022-12-24T04:11:41.031Z,3.37
2022-12-24T04:14:08.665Z,3.17
2022-12-24T04:16:39.180Z,3.77
2022-12-24T04:19:07.057Z,3.23
2022-12-24T04:21:34.696Z,2.87
2022-12-24T04:24:02.344Z,3.33
2022-12-24T04:26:29.983Z,3.03
2022-12-24T04:28:57.654Z,3.60
2022-12-24T04:31:25.324Z,3.37
2022-12-24T04:33:53.175Z,2.80
2022-12-24T04:36:21.062Z,3.43
2022-12-24T04:38:49.412Z,3.10
2022-12-24T04:41:23.305Z,3.40
2022-12-24T04:43:52.174Z,3.97
2022-12-24T04:46:22.661Z,3.57
2022-12-24T04:48:51.352Z,3.17
2022-12-24T04:51:19.759Z,3.00
2022-12-24T04:53:47.453Z,3.50
2022-12-24T04:56:16.707Z,3.20
2022-12-24T04:58:47.562Z,3.03
2022-12-24T05:01:17.982Z,3.13
2022-12-24T05:03:46.722Z,3.13
2022-12-24T05:06:15.708Z,4.10
2022-12-24T05:08:43.704Z,3.40
2022-12-24T05:11:11.656Z,4.17
2022-12-24T05:13:47.407Z,4.03
2022-12-24T05:16:19.470Z,3.93
2022-12-24T05:18:47.315Z,3.57
2022-12-24T05:21:19.010Z,3.47
2022-12-24T05:23:46.674Z,4.50
2022-12-24T05:26:21.716Z,4.13
2022-12-24T05:28:50.008Z,4.30
2022-12-24T05:31:17.776Z,4.47
2022-12-24T05:33:45.724Z,4.40
2022-12-24T05:36:15.538Z,3.63
2022-12-24T05:38:43.381Z,4.77
2022-12-24T05:41:11.112Z,4.50
2022-12-24T05:43:39.220Z,3.10
2022-12-24T05:46:08.215Z,2.90
2022-12-24T05:48:36.107Z,3.50
2022-12-24T05:51:08.659Z,3.93
2022-12-24T05:53:36.691Z,3.60
2022-12-24T05:56:08.363Z,3.13
2022-12-24T05:58:36.201Z,2.97
2022-12-24T06:01:04.958Z,3.97
2022-12-24T06:03:33.014Z,4.10
2022-12-24T06:06:01.353Z,4.03
2022-12-24T06:08:29.489Z,4.27
2022-12-24T06:11:00.999Z,4.87
2022-12-24T06:13:29.164Z,3.47
2022-12-24T06:15:57.651Z,3.43
2022-12-24T06:18:25.516Z,4.37
2022-12-24T06:20:53.787Z,3.70
2022-12-24T06:23:22.037Z,4.30
2022-12-24T06:25:49.929Z,4.23
2022-12-24T06:28:19.788Z,4.17
2022-12-24T06:30:48.466Z,4.07
2022-12-24T06:33:16.325Z,4.17
2022-12-24T06:35:45.425Z,4.60
2022-12-24T06:38:13.204Z,4.90
2022-12-24T06:40:41.314Z,5.13
2022-12-24T06:43:11.194Z,4.47
2022-12-24T06:45:39.182Z,4.63
2022-12-24T06:48:08.394Z,4.47
2022-12-24T06:50:36.057Z,4.33
2022-12-24T06:53:03.694Z,5.10
2022-12-24T06:55:31.613Z,4.33
2022-12-24T06:58:05.445Z,5.43
2022-12-24T07:00:33.394Z,4.77
2022-12-24T07:03:01.198Z,4.70
2022-12-24T07:05:34.013Z,4.43
2022-12-24T07:08:01.751Z,4.43
2022-12-24T07:10:29.379Z,4.33
2022-12-24T07:12:57.339Z,5.10
2022-12-24T07:15:26.186Z,4.70
2022-12-24T07:17:53.933Z,5.37
2022-12-24T07:20:21.603Z,4.97
2022-12-24T07:22:49.236Z,5.00
2022-12-24T07:25:16.909Z,4.43
2022-12-24T07:27:44.567Z,4.53
2022-12-24T07:30:12.411Z,4.40
2022-12-24T07:32:40.286Z,4.90
2022-12-24T07:35:08.276Z,4.90
2022-12-24T07:37:35.961Z,5.03
2022-12-24T07:40:03.768Z,4.90
2022-12-24T07:42:31.394Z,5.10
2022-12-24T07:44:58.972Z,5.03
2022-12-24T07:47:26.659Z,4.80
2022-12-24T07:49:54.279Z,4.93
2022-12-24T08:17:54.447Z,5.37
2022-12-24T08:20:22.248Z,5.13
2022-12-24T08:22:49.838Z,5.03
2022-12-24T08:25:17.519Z,4.70
2022-12-24T08:27:45.172Z,5.43
2022-12-24T08:30:19.029Z,5.43
2022-12-24T08:32:48.697Z,5.87
2022-12-24T08:35:16.401Z,4.77
2022-12-24T08:37:46.295Z,6.20
2022-12-24T08:40:14.009Z,4.37
2022-12-24T08:42:41.757Z,4.97
2022-12-24T08:45:12.121Z,4.93
2022-12-24T08:47:39.988Z,4.47
2022-12-24T08:50:08.075Z,4.93
2022-12-24T08:52:35.725Z,4.80
2022-12-24T08:55:03.534Z,5.23
2022-12-24T08:57:31.255Z,4.67
2022-12-24T08:59:58.865Z,6.00
2022-12-24T09:02:26.613Z,5.30
2022-12-24T09:04:54.323Z,5.17
2022-12-24T09:07:23.393Z,5.00
2022-12-24T09:09:51.033Z,5.57
2022-12-24T09:12:18.705Z,4.77
2022-12-24T09:14:46.517Z,4.53
2022-12-24T09:17:15.310Z,5.60
2022-12-24T09:19:42.918Z,4.47
2022-12-24T09:22:10.682Z,5.20
2022-12-24T09:24:38.464Z,5.60
2022-12-24T09:27:06.151Z,5.13
2022-12-24T09:29:33.787Z,5.47
2022-12-24T09:32:01.561Z,4.87
2022-12-24T09:34:30.635Z,5.67
2022-12-24T09:36:58.750Z,5.90
2022-12-24T09:39:29.534Z,5.63
2022-12-24T09:42:06.289Z,4.70
2022-12-24T09:44:42.894Z,4.30
2022-12-24T09:47:33.736Z,4.67
2022-12-24T09:50:05.767Z,6.00
2022-12-24T09:52:36.170Z,5.67
2022-12-24T09:55:24.130Z,5.23
2022-12-24T09:57:55.871Z,6.43
2022-12-24T10:00:28.329Z,6.10
2022-12-24T10:02:56.054Z,6.30
2022-12-24T10:05:44.081Z,4.57
2022-12-24T10:08:17.130Z,4.83
2022-12-24T10:10:50.869Z,5.40
2022-12-24T10:13:36.849Z,6.33
2022-12-24T10:16:11.747Z,5.97
2022-12-24T10:18:48.882Z,5.27
2022-12-24T10:21:36.160Z,6.27
2022-12-24T10:24:16.189Z,5.33
2022-12-24T10:26:44.067Z,5.00
2022-12-24T10:29:31.461Z,5.90
2022-12-24T10:32:10.418Z,5.53
2022-12-24T10:34:45.547Z,4.90
2022-12-24T10:37:26.478Z,5.77
2022-12-24T10:39:54.156Z,6.00
2022-12-24T10:42:24.247Z,5.40
2022-12-24T10:44:55.474Z,5.37
2022-12-24T10:47:23.314Z,5.40
2022-12-24T10:49:50.913Z,5.03
2022-12-24T10:52:20.674Z,6.43
2022-12-24T10:55:09.051Z,6.70
2022-12-24T10:57:36.840Z,5.00
2022-12-24T11:00:04.909Z,5.73
2022-12-24T11:02:38.334Z,5.67
2022-12-24T11:05:08.621Z,5.47
2022-12-24T11:07:36.348Z,5.77
2022-12-24T11:10:08.079Z,6.57
2022-12-24T11:12:37.860Z,5.70
2022-12-24T11:15:18.408Z,5.13
2022-12-24T11:17:53.709Z,5.30
2022-12-24T11:20:26.221Z,4.63
2022-12-24T11:22:54.533Z,5.23
2022-12-24T11:25:22.138Z,5.37
2022-12-24T11:27:50.654Z,5.37
2022-12-24T11:30:24.305Z,6.27
2022-12-24T11:33:11.953Z,6.00
2022-12-24T11:35:41.126Z,5.33
2022-12-24T11:38:08.746Z,4.97
2022-12-24T11:41:09.133Z,5.20
2022-12-24T11:43:44.950Z,5.00
2022-12-24T11:46:20.595Z,5.30
2022-12-24T11:48:48.833Z,5.70
2022-12-24T11:51:20.899Z,5.77
2022-12-24T11:53:50.607Z,5.20
2022-12-24T11:56:28.021Z,5.17
2022-12-24T11:58:57.490Z,4.80
2022-12-24T12:01:25.124Z,5.20
2022-12-24T12:03:55.290Z,4.97
2022-12-24T12:06:40.760Z,5.70
2022-12-24T12:09:15.843Z,5.77
2022-12-24T12:11:44.799Z,5.47
2022-12-24T12:14:32.681Z,5.27
2022-12-24T12:17:18.957Z,5.17
2022-12-24T12:19:49.758Z,5.20
2022-12-24T12:22:28.440Z,5.33
2022-12-24T12:24:57.375Z,5.10
2022-12-24T12:27:28.108Z,5.03
2022-12-24T12:30:00.886Z,5.37
2022-12-24T12:32:36.232Z,5.03
2022-12-24T12:35:16.099Z,5.03
2022-12-24T12:37:45.800Z,5.07
2022-12-24T12:40:17.726Z,4.70
2022-12-24T12:42:51.564Z,5.10
2022-12-24T12:45:29.792Z,4.33
2022-12-24T12:48:00.261Z,4.70
2022-12-24T12:50:35.919Z,5.50
2022-12-24T12:53:06.764Z,4.20
2022-12-24T12:55:39.875Z,5.10
2022-12-24T12:58:13.958Z,4.40
2022-12-24T13:00:42.861Z,6.00
2022-12-24T13:03:28.605Z,5.33
2022-12-24T13:06:19.444Z,4.97
2022-12-24T13:09:05.784Z,5.00
2022-12-24T13:11:57.451Z,5.63
2022-12-24T13:14:38.867Z,5.80
2022-12-24T13:17:12.470Z,5.70
2022-12-24T13:19:40.114Z,4.50
2022-12-24T13:22:15.479Z,5.20
2022-12-24T13:24:51.864Z,4.80
2022-12-24T13:27:20.159Z,3.50
2022-12-24T13:30:10.246Z,4.20
2022-12-24T13:32:39.444Z,4.67
2022-12-24T13:35:21.653Z,4.43
2022-12-24T13:37:49.782Z,5.00
2022-12-24T13:40:22.744Z,4.40
2022-12-24T13:42:59.529Z,4.20
2022-12-24T13:45:32.414Z,4.00
2022-12-24T13:48:13.748Z,4.37
2022-12-24T13:50:49.529Z,3.97
2022-12-24T13:53:23.388Z,4.57
2022-12-24T13:56:05.097Z,4.53
2022-12-24T13:58:33.846Z,4.43
2022-12-24T14:01:03.250Z,4.33
2022-12-24T14:03:42.212Z,5.03
2022-12-24T14:06:11.916Z,4.70
2022-12-24T14:08:44.459Z,4.23
2022-12-24T14:11:22.496Z,4.80
2022-12-24T14:13:50.218Z,5.20
2022-12-24T14:16:30.282Z,3.93
2022-12-24T14:19:04.040Z,4.03
2022-12-24T14:21:35.237Z,4.57
2022-12-24T14:24:07.524Z,4.33
2022-12-24T14:26:35.704Z,5.00
2022-12-24T14:29:25.511Z,4.33
2022-12-24T14:32:00.402Z,4.00
2022-12-24T14:34:28.166Z,4.03
2022-12-24T14:36:56.442Z,4.63
2022-12-24T14:39:33.075Z,4.80
2022-12-24T14:42:05.912Z,4.10
2022-12-24T14:44:39.738Z,4.13
2022-12-24T14:47:07.448Z,4.00
2022-12-24T14:49:46.187Z,4.50
2022-12-24T14:53:08.203Z,4.10
2022-12-24T14:55:40.155Z,4.30
2022-12-24T14:58:20.059Z,4.83
2022-12-24T15:00:47.875Z,5.17
2022-12-24T15:03:16.875Z,5.20
2022-12-24T15:05:44.955Z,5.13
2022-12-24T15:08:20.374Z,4.27
2022-12-24T15:10:51.994Z,4.47
2022-12-24T15:13:25.728Z,4.27
2022-12-24T15:15:54.977Z,5.10
2022-12-24T15:18:24.841Z,3.87
2022-12-24T15:20:57.207Z,5.33
2022-12-24T15:23:29.583Z,4.80
2022-12-24T15:26:26.561Z,4.30
2022-12-24T15:29:02.211Z,4.77
2022-12-24T15:31:34.677Z,5.17
2022-12-24T15:34:02.405Z,4.57
2022-12-24T15:36:31.834Z,4.87
2022-12-24T15:39:00.990Z,5.53
2022-12-24T15:41:30.765Z,5.57
2022-12-24T15:44:02.055Z,4.70
2022-12-24T15:46:32.298Z,4.30
2022-12-24T15:49:01.362Z,5.93
2022-12-24T15:51:39.857Z,4.63
2022-12-24T15:54:13.255Z,5.33
2022-12-24T15:56:42.449Z,4.57
2022-12-24T15:59:22.420Z,5.83
2022-12-24T16:01:50.203Z,6.00
2022-12-24T16:04:24.866Z,6.30
2022-12-24T16:06:59.432Z,6.00
2022-12-24T16:09:32.942Z,8.40
2022-12-24T16:12:03.361Z,7.10
2022-12-24T16:14:33.001Z,8.07
2022-12-24T16:17:02.348Z,7.87
2022-12-24T16:19:39.456Z,8.23
2022-12-24T16:22:08.081Z,7.50
2022-12-24T16:24:36.107Z,6.33
2022-12-24T16:27:11.032Z,7.13
2022-12-24T16:29:38.729Z,6.43
2022-12-24T16:32:06.599Z,5.60
2022-12-24T16:34:34.281Z,6.00
2022-12-24T16:37:01.885Z,6.30
2022-12-24T16:39:33.647Z,6.43
2022-12-24T16:42:02.422Z,7.43
2022-12-24T16:44:30.112Z,6.07
2022-12-24T16:46:59.273Z,6.13
2022-12-24T16:49:27.321Z,5.40
2022-12-24T16:51:55.109Z,7.03
2022-12-24T16:54:22.832Z,7.63
2022-12-24T16:56:50.558Z,8.60
2022-12-24T16:59:20.823Z,7.77
2022-12-24T17:01:49.009Z,6.97
2022-12-24T17:04:19.432Z,6.93
2022-12-24T17:06:49.236Z,6.57
2022-12-24T17:09:17.163Z,7.03
2022-12-24T17:11:44.794Z,5.93
2022-12-24T17:14:19.728Z,6.13
2022-12-24T17:16:48.107Z,5.60
2022-12-24T17:19:15.895Z,5.90
2022-12-24T17:21:43.645Z,6.77
2022-12-24T17:24:11.256Z,7.73
2022-12-24T17:26:38.931Z,6.83
2022-12-24T17:29:06.695Z,6.23
2022-12-24T17:31:37.174Z,7.00
2022-12-24T17:34:04.898Z,7.13
2022-12-24T17:36:32.512Z,6.60
2022-12-24T17:39:00.456Z,7.10
2022-12-24T17:41:28.112Z,7.20
2022-12-24T17:43:55.762Z,5.90
2022-12-24T17:46:23.981Z,6.50
2022-12-24T17:48:52.185Z,7.70
2022-12-24T17:51:23.322Z,9.77
2022-12-24T17:53:51.110Z,9.40
2022-12-24T17:56:18.960Z,9.07
2022-12-24T17:58:46.938Z,10.87
2022-12-24T18:01:18.103Z,12.07
2022-12-24T18:03:46.064Z,12.03
2022-12-24T18:06:14.218Z,10.63
2022-12-24T18:08:42.556Z,10.90
2022-12-24T18:11:21.037Z,9.97
2022-12-24T18:13:48.829Z,9.73
2022-12-24T18:16:32.870Z,8.57
2022-12-24T18:19:01.134Z,9.60
2022-12-24T18:21:32.906Z,8.83
2022-12-24T18:24:00.969Z,9.20
2022-12-24T18:26:31.537Z,9.00
2022-12-24T18:29:00.052Z,9.40
2022-12-24T18:31:31.344Z,11.03
2022-12-24T18:33:59.039Z,13.00
2022-12-24T18:36:26.697Z,11.43
2022-12-24T18:38:54.377Z,13.10
2022-12-24T18:41:23.486Z,12.67
2022-12-24T18:43:51.361Z,13.10
2022-12-24T18:46:20.869Z,13.17
2022-12-24T18:48:48.960Z,13.90
2022-12-24T18:51:17.267Z,29.23
2022-12-24T18:53:45.196Z,19.63
2022-12-24T18:56:17.170Z,21.70
2022-12-24T18:58:45.315Z,17.77
2022-12-24T19:01:17.700Z,14.67
2022-12-24T19:03:45.781Z,12.33
2022-12-24T19:06:13.765Z,12.50
2022-12-24T19:08:59.018Z,13.13
2022-12-24T19:11:29.084Z,11.93
2022-12-24T19:13:56.708Z,11.67
2022-12-24T19:16:24.575Z,10.70
2022-12-24T19:18:52.308Z,11.30
2022-12-24T19:21:20.185Z,11.07
2022-12-24T19:23:47.928Z,10.23
2022-12-24T19:26:19.011Z,10.90
2022-12-24T19:28:46.991Z,10.50
2022-12-24T19:31:16.012Z,11.53
2022-12-24T19:33:44.845Z,11.07
2022-12-24T19:36:13.933Z,10.93
2022-12-24T19:38:41.783Z,12.30
2022-12-24T19:41:28.684Z,13.47
2022-12-24T19:43:58.080Z,13.27
2022-12-24T19:46:30.831Z,12.33
2022-12-24T19:48:59.728Z,14.50
2022-12-24T19:51:28.002Z,14.13
2022-12-24T19:53:56.564Z,13.00
2022-12-24T19:56:24.962Z,11.47
2022-12-24T19:58:53.026Z,11.60
2022-12-24T20:01:25.266Z,11.77
2022-12-24T20:03:53.696Z,14.80
2022-12-24T20:06:22.824Z,14.57
2022-12-24T20:08:50.676Z,11.80
2022-12-24T20:11:19.370Z,12.90
2022-12-24T20:13:47.269Z,12.93
2022-12-24T20:16:21.671Z,12.27
2022-12-24T20:18:53.194Z,12.97
2022-12-24T20:21:21.234Z,13.07
2022-12-24T20:23:48.891Z,13.53
2022-12-24T20:26:21.989Z,10.73
2022-12-24T20:28:50.072Z,11.93
2022-12-24T20:31:19.688Z,11.33
2022-12-24T20:33:47.917Z,12.13
2022-12-24T20:36:16.982Z,12.63
2022-12-24T20:38:48.303Z,12.67
2022-12-24T20:41:17.176Z,12.60
2022-12-24T20:43:48.400Z,11.47
2022-12-24T20:46:20.567Z,11.70
2022-12-24T20:48:49.130Z,11.00
2022-12-24T20:51:23.773Z,12.70
2022-12-24T20:53:53.276Z,12.73
2022-12-24T20:56:20.980Z,10.80
2022-12-24T20:58:52.183Z,11.03
2022-12-24T21:01:21.303Z,10.93
2022-12-24T21:03:52.280Z,10.83
2022-12-24T21:06:20.079Z,10.27
2022-12-24T21:08:49.703Z,10.73
2022-12-24T21:11:17.644Z,10.83
2022-12-24T21:13:45.308Z,10.40
2022-12-24T21:16:13.002Z,11.43
2022-12-24T21:18:43.463Z,10.73
2022-12-24T21:21:11.078Z,10.43
2022-12-24T21:23:38.680Z,11.87
2022-12-24T21:26:06.357Z,10.07
2022-12-24T21:28:34.021Z,10.00
2022-12-24T21:31:01.787Z,11.37
2022-12-24T21:33:34.783Z,11.57
2022-12-24T21:36:05.703Z,10.83
2022-12-24T21:38:33.514Z,11.17
2022-12-24T21:41:05.249Z,10.17
2022-12-24T21:43:33.733Z,10.17
2022-12-24T21:46:01.592Z,10.93
2022-12-24T21:48:29.386Z,10.73
2022-12-24T21:50:57.015Z,10.43
2022-12-24T21:53:24.663Z,10.00
2022-12-24T21:55:55.400Z,11.00
2022-12-24T21:58:26.139Z,12.70
2022-12-24T22:00:53.900Z,11.30
2022-12-24T22:03:22.462Z,9.70
2022-12-24T22:05:50.230Z,9.27
2022-12-24T22:08:17.873Z,10.50
2022-12-24T22:10:45.663Z,10.43
2022-12-24T22:13:16.109Z,9.27
2022-12-24T22:15:48.193Z,10.33
2022-12-24T22:18:17.021Z,9.23
2022-12-24T22:20:45.122Z,9.57
2022-12-24T22:23:13.493Z,9.67
2022-12-24T22:25:41.645Z,9.80
2022-12-24T22:28:09.276Z,9.90
2022-12-24T22:30:39.563Z,10.57
2022-12-24T22:33:07.454Z,10.13
2022-12-24T22:35:41.365Z,10.03
2022-12-24T22:38:09.774Z,9.63
2022-12-24T22:40:40.543Z,10.00
2022-12-24T22:43:08.273Z,11.03
2022-12-24T22:45:35.917Z,10.37
2022-12-24T22:48:03.654Z,9.87
2022-12-24T22:50:31.267Z,9.80
2022-12-24T22:52:58.882Z,9.13
2022-12-24T22:55:26.515Z,9.40
2022-12-24T22:57:54.169Z,9.50
2022-12-24T23:00:57.109Z,10.77
2022-12-24T23:03:25.001Z,9.43
2022-12-24T23:06:02.817Z,9.70
2022-12-24T23:08:31.480Z,9.57
2022-12-24T23:11:08.923Z,10.53
2022-12-24T23:13:38.432Z,9.40
2022-12-24T23:16:07.422Z,9.03
2022-12-24T23:18:35.084Z,8.70
2022-12-24T23:21:05.446Z,9.93
2022-12-24T23:23:36.838Z,9.23
2022-12-24T23:26:09.399Z,9.57
2022-12-24T23:28:37.418Z,8.80
2022-12-24T23:31:05.339Z,9.50
2022-12-24T23:33:33.401Z,9.03
2022-12-24T23:36:01.167Z,9.10
2022-12-24T23:38:28.863Z,8.97
2022-12-24T23:40:57.005Z,9.30
2022-12-24T23:43:24.690Z,8.33
2022-12-24T23:45:55.285Z,8.67
2022-12-24T23:48:23.976Z,8.53
2022-12-24T23:50:52.019Z,8.70
2022-12-24T23:53:22.699Z,8.30
2022-12-24T23:55:50.354Z,8.83
2022-12-24T23:58:17.951Z,7.60
